createdAt,value
2023-08-29T00:00:25.504Z,21.000000
2023-08-29T00:05:25.600Z,21.086957
2023-08-29T00:10:25.513Z,20.995455
2023-08-29T00:15:25.538Z,20.804545
2023-08-29T00:20:25.411Z,20.690476
2023-08-29T00:25:37.505Z,20.722727
2023-08-29T00:30:25.480Z,20.400000
2023-08-29T00:35:25.605Z,20.433333
2023-08-29T00:40:25.497Z,20.823810
2023-08-29T00:45:25.576Z,20.923810
2023-08-29T00:50:25.548Z,20.790476
2023-08-29T00:55:25.591Z,20.785000
2023-08-29T01:00:25.479Z,21.409524
2023-08-29T01:05:25.548Z,21.365000
2023-08-29T01:10:25.526Z,21.422727
2023-08-29T01:15:25.597Z,21.680952
2023-08-29T01:20:25.469Z,22.447368
2023-08-29T01:25:25.498Z,22.625000
2023-08-29T01:30:25.627Z,22.500000
2023-08-29T01:35:25.539Z,22.300000
2023-08-29T01:40:25.522Z,21.961905
2023-08-29T01:45:25.577Z,21.273684
2023-08-29T01:50:25.501Z,20.880952
2023-08-29T01:55:25.737Z,20.395652
2023-08-29T02:00:25.515Z,20.100000
2023-08-29T02:05:25.675Z,20.475000
2023-08-29T02:10:49.599Z,21.090476
2023-08-29T02:15:25.469Z,21.685000
2023-08-29T02:20:25.481Z,21.954545
2023-08-29T02:25:25.447Z,22.878947
2023-08-29T02:30:28.479Z,23.533333
2023-08-29T02:35:25.587Z,23.745000
2023-08-29T02:40:25.400Z,23.676190
2023-08-29T02:45:25.472Z,23.678947
2023-08-29T02:50:25.504Z,23.531579
2023-08-29T02:55:25.506Z,22.330435
2023-08-29T03:00:25.698Z,21.923810
2023-08-29T03:05:25.527Z,21.577273
2023-08-29T03:10:37.375Z,21.110000
2023-08-29T03:15:25.408Z,20.745833
2023-08-29T03:20:25.431Z,20.570833
2023-08-29T03:25:25.577Z,20.477273
2023-08-29T03:30:25.510Z,20.231579
2023-08-29T03:35:25.512Z,19.939130
2023-08-29T03:40:25.534Z,19.608696
2023-08-29T03:45:25.617Z,19.796000
2023-08-29T03:50:37.582Z,20.254545
2023-08-29T03:55:25.508Z,20.473684
2023-08-29T04:00:25.486Z,21.156522
2023-08-29T04:05:25.476Z,21.814286
2023-08-29T04:10:25.442Z,22.564706
2023-08-29T04:15:25.545Z,23.295455
2023-08-29T04:20:25.521Z,23.786364
2023-08-29T04:25:25.519Z,24.959091
2023-08-29T04:30:25.374Z,26.000000
2023-08-29T04:35:37.435Z,26.488889
2023-08-29T04:40:25.364Z,26.455000
2023-08-29T04:45:25.435Z,26.757143
2023-08-29T04:50:25.446Z,27.490000
2023-08-29T04:55:25.471Z,27.817647
2023-08-29T05:00:25.329Z,28.227273
2023-08-29T05:05:25.392Z,28.776190
2023-08-29T05:10:25.359Z,29.321053
2023-08-29T05:15:25.624Z,29.652632
2023-08-29T05:20:37.484Z,29.589474
2023-08-29T05:25:25.532Z,29.547368
2023-08-29T05:30:25.388Z,29.030000
2023-08-29T05:35:25.401Z,29.231250
2023-08-29T05:40:25.378Z,29.836364
2023-08-29T05:45:25.400Z,30.150000
2023-08-29T05:50:37.532Z,31.768182
2023-08-29T05:55:49.396Z,31.377273
2023-08-29T06:00:37.421Z,31.810526
2023-08-29T06:05:37.425Z,31.791304
2023-08-29T06:10:25.391Z,31.147368
2023-08-29T06:15:25.517Z,30.880952
2023-08-29T06:20:25.415Z,31.690909
2023-08-29T06:25:25.526Z,31.395652
2023-08-29T06:30:25.508Z,31.421053
2023-08-29T06:35:25.408Z,31.009091
2023-08-29T06:40:25.460Z,30.090000
2023-08-29T06:45:37.614Z,29.909091
2023-08-29T06:50:25.425Z,29.826316
2023-08-29T06:55:25.629Z,29.904167
2023-08-29T07:00:25.352Z,29.861905
2023-08-29T07:05:25.513Z,30.255000
2023-08-29T07:10:25.441Z,30.557895
2023-08-29T07:15:25.478Z,30.271429
2023-08-29T07:20:25.454Z,30.255000
2023-08-29T07:25:25.468Z,29.957143
2023-08-29T07:30:25.642Z,29.600000
2023-08-29T07:35:25.409Z,29.694737
2023-08-29T07:40:25.488Z,29.660000
2023-08-29T07:45:25.467Z,30.090000
2023-08-29T07:50:25.430Z,29.614286
2023-08-29T07:55:25.473Z,29.762500
2023-08-29T08:00:25.623Z,29.940000
2023-08-29T08:05:25.366Z,30.038095
2023-08-29T08:10:25.728Z,30.013636
2023-08-29T08:15:37.474Z,29.735000
2023-08-29T08:20:25.486Z,29.539130
2023-08-29T08:25:37.431Z,29.885714
2023-08-29T08:30:25.475Z,29.411111
2023-08-29T08:35:25.381Z,29.375000
2023-08-29T08:40:25.478Z,29.126316
2023-08-29T08:45:25.587Z,29.147619
2023-08-29T08:50:25.512Z,29.226087
2023-08-29T08:55:25.532Z,29.342105
2023-08-29T09:00:25.645Z,28.800000
2023-08-29T09:05:37.440Z,29.154545
2023-08-29T09:10:49.582Z,29.015000
2023-08-29T09:15:25.582Z,29.331579
2023-08-29T09:20:25.488Z,29.326087
2023-08-29T09:25:25.551Z,29.161905
2023-08-29T09:30:25.648Z,29.018182
2023-08-29T09:35:25.417Z,29.336364
2023-08-29T09:40:39.888Z,29.552381
2023-08-29T09:45:25.521Z,29.742105
2023-08-29T09:50:25.468Z,29.400000
2023-08-29T09:55:25.498Z,29.240000
2023-08-29T10:00:25.576Z,28.540000
2023-08-29T10:05:25.368Z,28.125000
2023-08-29T10:10:25.387Z,28.163158
2023-08-29T10:15:25.469Z,28.510000
2023-08-29T10:20:25.511Z,28.570000
2023-08-29T10:25:37.542Z,28.670000
2023-08-29T10:30:25.483Z,28.727778
2023-08-29T10:35:25.550Z,29.200000
2023-08-29T10:40:25.446Z,29.038095
2023-08-29T10:45:25.458Z,28.976471
2023-08-29T10:50:28.031Z,28.718750
2023-08-29T10:55:38.808Z,28.890476
2023-08-29T11:00:25.517Z,28.486364
2023-08-29T11:05:37.440Z,28.608696
2023-08-29T11:10:25.490Z,28.352941
2023-08-29T11:15:25.547Z,28.931818
2023-08-29T11:20:25.486Z,29.100000
2023-08-29T11:25:25.548Z,28.752632
2023-08-29T11:30:38.627Z,28.632000
2023-08-29T11:35:25.389Z,28.868182
2023-08-29T11:40:37.975Z,29.245000
2023-08-29T11:45:47.034Z,29.266667
2023-08-29T11:50:25.516Z,29.391304
2023-08-29T11:55:49.380Z,29.817647
2023-08-29T12:00:25.593Z,29.090000
2023-08-29T12:05:25.542Z,28.804545
2023-08-29T12:10:25.462Z,29.004762
2023-08-29T12:15:49.593Z,29.682353
2023-08-29T12:20:25.484Z,29.878947
2023-08-29T12:25:25.544Z,29.438095
2023-08-29T12:30:37.594Z,29.363636
2023-08-29T12:35:25.472Z,29.572727
2023-08-29T12:40:25.381Z,29.414286
2023-08-29T12:45:25.448Z,29.063636
2023-08-29T12:50:37.530Z,29.242105
2023-08-29T12:55:49.424Z,29.152381
2023-08-29T13:00:25.562Z,29.255556
2023-08-29T13:05:25.553Z,28.572727
2023-08-29T13:10:25.530Z,28.921053
2023-08-29T13:15:28.676Z,28.494737
2023-08-29T13:20:49.444Z,28.750000
2023-08-29T13:25:25.532Z,28.526316
2023-08-29T13:30:25.479Z,28.345455
2023-08-29T13:35:25.379Z,28.121739
2023-08-29T13:40:25.463Z,28.065217
2023-08-29T13:45:37.526Z,27.945455
2023-08-29T13:50:25.602Z,27.866667
2023-08-29T13:55:25.501Z,27.617391
2023-08-29T14:00:25.554Z,27.772727
2023-08-29T14:05:25.416Z,27.765000
2023-08-29T14:10:25.592Z,27.847826
2023-08-29T14:15:37.569Z,28.111111
2023-08-29T14:20:25.428Z,28.005263
2023-08-29T14:25:25.530Z,27.857895
2023-08-29T14:30:25.652Z,27.926316
2023-08-29T14:35:25.482Z,27.890909
2023-08-29T14:40:25.546Z,28.045000
2023-08-29T14:45:25.465Z,28.150000
2023-08-29T14:50:25.924Z,27.852381
2023-08-29T14:55:25.501Z,27.884211
2023-08-29T15:00:25.350Z,27.836842
2023-08-29T15:05:25.522Z,27.905000
2023-08-29T15:10:25.512Z,27.700000
2023-08-29T15:15:25.475Z,27.917391
2023-08-29T15:20:25.544Z,27.745000
2023-08-29T15:25:37.562Z,27.217391
2023-08-29T15:30:25.346Z,26.733333
2023-08-29T15:35:37.713Z,26.530000
2023-08-29T15:40:25.572Z,26.538095
2023-08-29T15:45:37.522Z,26.473913
2023-08-29T15:50:25.516Z,26.450000
2023-08-29T15:55:25.490Z,26.338095
2023-08-29T16:00:25.429Z,26.271429
2023-08-29T16:05:25.455Z,26.173684
2023-08-29T16:10:25.545Z,26.081818
2023-08-29T16:15:25.428Z,25.963636
2023-08-29T16:20:25.512Z,25.919048
2023-08-29T16:25:25.335Z,25.805000
2023-08-29T16:30:25.370Z,25.715000
2023-08-29T16:35:25.532Z,25.652941
2023-08-29T16:40:25.429Z,25.580000
2023-08-29T16:45:37.538Z,25.400000
2023-08-29T16:50:37.381Z,25.200000
2023-08-29T16:55:25.494Z,25.011765
2023-08-29T17:00:25.604Z,24.983333
2023-08-29T17:05:37.467Z,24.905000
2023-08-29T17:10:25.417Z,24.315789
2023-08-29T17:15:25.478Z,24.050000
2023-08-29T17:20:25.711Z,23.854545
2023-08-29T17:25:25.460Z,23.817647
2023-08-29T17:30:25.498Z,23.925000
2023-08-29T17:35:25.417Z,24.031579
2023-08-29T17:40:25.441Z,24.183333
2023-08-29T17:45:25.650Z,24.333333
2023-08-29T17:50:25.376Z,24.363636
2023-08-29T17:55:37.437Z,24.352174
2023-08-29T18:00:25.354Z,24.328571
2023-08-29T18:05:25.725Z,24.363636
2023-08-29T18:10:25.448Z,24.375000
2023-08-29T18:15:25.521Z,24.528571
2023-08-29T18:20:25.392Z,24.711111
2023-08-29T18:25:25.427Z,24.842857
2023-08-29T18:30:25.414Z,24.800000
2023-08-29T18:35:25.598Z,24.775000
2023-08-29T18:40:25.534Z,24.600000
2023-08-29T18:45:25.354Z,24.452632
2023-08-29T18:50:25.348Z,24.308696
2023-08-29T18:55:25.424Z,24.168182
2023-08-29T19:00:25.441Z,23.822727
2023-08-29T19:05:25.396Z,23.756522
2023-08-29T19:10:25.451Z,23.955000
2023-08-29T19:15:25.441Z,24.265000
2023-08-29T19:20:25.332Z,24.425000
2023-08-29T19:25:25.498Z,24.490000
2023-08-29T19:30:37.464Z,24.533333
2023-08-29T19:35:25.403Z,24.622222
2023-08-29T19:40:25.438Z,24.665217
2023-08-29T19:45:25.567Z,24.670833
2023-08-29T19:50:25.367Z,24.650000
2023-08-29T19:55:25.371Z,24.522727
2023-08-29T20:00:25.391Z,24.400000
2023-08-29T20:05:37.366Z,24.300000
2023-08-29T20:10:25.320Z,24.309524
2023-08-29T20:15:25.481Z,24.350000
2023-08-29T20:20:25.347Z,24.450000
2023-08-29T20:25:25.434Z,24.455000
2023-08-29T20:30:25.369Z,24.385000
2023-08-29T20:35:25.376Z,24.395000
2023-08-29T20:40:25.330Z,24.445000
2023-08-29T20:45:25.393Z,24.452381
2023-08-29T20:50:25.404Z,24.445000
2023-08-29T20:55:25.419Z,24.327778
2023-08-29T21:00:25.346Z,24.230435
2023-08-29T21:05:25.375Z,24.257143
2023-08-29T21:10:25.353Z,24.100000
2023-08-29T21:15:25.427Z,23.740000
2023-08-29T21:20:25.482Z,23.635000
2023-08-29T21:25:25.415Z,23.822222
2023-08-29T21:30:25.444Z,23.895238
2023-08-29T21:35:37.408Z,24.022727
2023-08-29T21:40:25.394Z,24.090909
2023-08-29T21:45:49.467Z,24.143478
2023-08-29T21:50:25.328Z,24.165000
2023-08-29T21:55:25.365Z,24.272727
2023-08-29T22:00:37.373Z,24.295455
2023-08-29T22:05:25.267Z,24.389474
2023-08-29T22:10:25.397Z,24.450000
2023-08-29T22:15:25.409Z,24.500000
2023-08-29T22:20:25.737Z,24.561905
2023-08-29T22:25:25.393Z,24.581250
2023-08-29T22:30:25.317Z,24.514286
2023-08-29T22:35:49.292Z,24.594737
2023-08-29T22:40:25.463Z,24.590000
2023-08-29T22:45:25.344Z,24.539130
2023-08-29T22:50:25.388Z,24.480000
2023-08-29T22:55:27.149Z,24.489474
2023-08-29T23:00:49.358Z,24.500000
2023-08-29T23:05:25.516Z,24.565000
2023-08-29T23:10:25.287Z,24.485000
2023-08-29T23:15:25.398Z,24.394444
2023-08-29T23:20:37.416Z,24.477273
2023-08-29T23:25:25.249Z,24.545000
2023-08-29T23:30:37.431Z,24.444444
2023-08-29T23:35:37.310Z,24.485000
2023-08-29T23:40:25.277Z,24.423810
2023-08-29T23:45:25.326Z,24.431579
2023-08-29T23:50:37.363Z,24.400000
2023-08-29T23:55:25.353Z,24.342857
